createdAt,value
2022-10-19T05:31:48.792Z,12.70
2022-10-19T05:34:16.061Z,12.80
2022-10-19T05:36:43.458Z,12.90
2022-10-19T05:39:16.375Z,13.00
2022-10-19T05:41:45.692Z,13.10
2022-10-19T05:44:16.310Z,13.10
2022-10-19T05:46:44.290Z,13.10
2022-10-19T05:49:12.732Z,13.10
2022-10-19T05:51:40.501Z,13.20
2022-10-19T05:54:08.381Z,13.20
2022-10-19T05:56:35.615Z,13.20
2022-10-19T05:59:10.268Z,13.20
2022-10-19T06:01:37.657Z,13.30
2022-10-19T06:04:06.866Z,13.40
2022-10-19T06:06:38.883Z,13.40
2022-10-19T06:09:12.354Z,13.50
2022-10-19T06:11:43.006Z,13.50
2022-10-19T06:14:13.967Z,13.60
2022-10-19T06:16:43.548Z,13.70
2022-10-19T06:19:14.307Z,13.70
2022-10-19T06:21:48.093Z,13.80
2022-10-19T06:24:16.620Z,13.80
2022-10-19T06:26:47.200Z,13.90
2022-10-19T06:29:14.738Z,13.90
2022-10-19T06:31:42.371Z,13.80
2022-10-19T06:34:09.742Z,13.80
2022-10-19T06:36:37.174Z,13.80
2022-10-19T06:39:06.757Z,13.70
2022-10-19T06:41:34.719Z,13.80
2022-10-19T06:44:02.189Z,13.90
2022-10-19T06:46:29.558Z,13.90
2022-10-19T06:48:59.911Z,14.00
2022-10-19T06:51:29.751Z,14.10
2022-10-19T06:53:57.608Z,14.10
2022-10-19T06:56:26.900Z,14.20
2022-10-19T06:58:54.925Z,14.10
2022-10-19T07:01:22.975Z,14.20
2022-10-19T07:03:52.258Z,14.20
2022-10-19T07:06:20.872Z,14.30
2022-10-19T07:08:50.098Z,14.50
2022-10-19T07:11:21.102Z,14.70
2022-10-19T07:13:48.588Z,14.90
2022-10-19T07:16:21.287Z,15.10
2022-10-19T07:18:51.136Z,15.30
2022-10-19T07:21:20.893Z,15.40
2022-10-19T07:23:48.715Z,14.60
2022-10-19T07:26:21.055Z,15.50
2022-10-19T07:28:49.435Z,15.40
2022-10-19T07:31:20.291Z,15.50
2022-10-19T07:33:52.065Z,15.50
2022-10-19T07:36:19.823Z,15.50
2022-10-19T07:39:12.014Z,15.60
2022-10-19T07:41:39.493Z,15.90
2022-10-19T07:44:09.008Z,16.00
2022-10-19T07:46:39.455Z,16.20
2022-10-19T07:49:10.143Z,16.40
2022-10-19T07:51:44.445Z,16.30
2022-10-19T07:54:16.476Z,16.40
2022-10-19T07:56:44.952Z,15.30
2022-10-19T07:59:17.755Z,15.70
2022-10-19T08:01:45.814Z,18.60
2022-10-19T08:07:03.552Z,17.20
2022-10-19T08:09:52.130Z,15.40
2022-10-19T08:12:19.032Z,17.10
2022-10-19T08:14:48.257Z,17.00
2022-10-19T08:17:17.963Z,15.50
2022-10-19T08:20:11.886Z,15.80
2022-10-19T08:22:39.871Z,16.50
2022-10-19T08:25:07.803Z,16.50
2022-10-19T08:27:38.051Z,16.60
2022-10-19T08:30:06.041Z,16.60
2022-10-19T08:32:39.025Z,16.70
2022-10-19T08:35:10.683Z,16.60
2022-10-19T08:37:45.344Z,16.80
2022-10-19T08:40:23.511Z,16.90
2022-10-19T08:46:02.275Z,16.70
2022-10-19T08:48:34.137Z,16.90
2022-10-19T08:51:03.035Z,17.00
2022-10-19T08:53:40.041Z,16.50
2022-10-19T08:56:50.938Z,16.50
2022-10-19T08:59:42.902Z,16.60
2022-10-19T09:02:34.892Z,16.60
2022-10-19T09:05:12.023Z,16.50
2022-10-19T09:07:45.777Z,16.50
2022-10-19T09:13:05.587Z,16.70
2022-10-19T09:15:41.556Z,16.60
2022-10-19T09:18:14.178Z,16.70
2022-10-19T09:20:47.104Z,16.80
2022-10-19T09:23:32.244Z,16.60
2022-10-19T09:25:59.408Z,17.00
2022-10-19T09:28:51.621Z,16.90
2022-10-19T09:31:31.491Z,16.30
2022-10-19T09:34:21.017Z,17.10
2022-10-19T09:36:56.368Z,16.90
2022-10-19T09:39:28.668Z,16.80
2022-10-19T09:42:04.833Z,16.80
2022-10-19T09:44:32.858Z,17.00
2022-10-19T09:47:32.767Z,17.30
2022-10-19T09:50:26.152Z,16.70
2022-10-19T09:52:56.609Z,17.00
2022-10-19T09:55:44.024Z,17.30
2022-10-19T09:58:19.420Z,17.10
2022-10-19T10:00:51.564Z,16.90
2022-10-19T10:03:29.715Z,17.00
2022-10-19T10:06:04.569Z,16.80
2022-10-19T10:08:36.482Z,16.80
2022-10-19T10:11:09.579Z,16.90
2022-10-19T10:13:38.800Z,16.80
2022-10-19T10:16:11.460Z,16.60
2022-10-19T10:18:58.491Z,16.60
2022-10-19T10:21:33.827Z,16.90
2022-10-19T10:24:19.229Z,16.80
2022-10-19T10:26:51.184Z,16.90
2022-10-19T10:29:25.961Z,16.90
2022-10-19T10:32:03.576Z,17.60
2022-10-19T10:34:49.467Z,16.60
2022-10-19T10:37:24.538Z,16.70
2022-10-19T10:39:56.805Z,16.90
2022-10-19T10:42:37.623Z,17.00
2022-10-19T10:45:16.093Z,16.60
2022-10-19T10:47:48.385Z,17.00
2022-10-19T10:50:31.720Z,17.10
2022-10-19T10:53:02.770Z,17.20
2022-10-19T10:55:32.642Z,17.10
2022-10-19T10:58:16.662Z,17.10
2022-10-19T11:00:45.452Z,16.90
2022-10-19T11:03:25.271Z,16.60
2022-10-19T11:06:08.156Z,16.60
2022-10-19T11:08:49.466Z,15.50
2022-10-19T11:11:23.057Z,15.70
2022-10-19T11:14:19.237Z,15.00
2022-10-19T11:16:50.944Z,16.60
2022-10-19T11:19:40.605Z,16.80
2022-10-19T11:22:29.848Z,17.00
2022-10-19T11:25:20.763Z,17.00
2022-10-19T11:28:28.184Z,17.00
2022-10-19T11:31:20.480Z,16.30
2022-10-19T11:34:00.345Z,16.60
2022-10-19T11:36:54.044Z,16.30
2022-10-19T11:39:42.844Z,16.30
2022-10-19T11:42:49.881Z,16.30
2022-10-19T11:45:45.955Z,16.10
2022-10-19T11:48:43.777Z,16.00
2022-10-19T11:51:27.554Z,16.00
2022-10-19T11:54:27.380Z,16.00
2022-10-19T11:57:04.768Z,16.20
2022-10-19T12:00:15.077Z,16.40
2022-10-19T12:08:48.277Z,16.60
2022-10-19T12:14:03.361Z,16.40
2022-10-19T12:16:38.039Z,16.20
2022-10-19T12:19:09.404Z,16.70
2022-10-19T12:21:40.095Z,16.60
2022-10-19T12:24:16.600Z,16.70
2022-10-19T12:26:46.682Z,16.80
2022-10-19T12:29:22.318Z,17.10
2022-10-19T12:31:52.081Z,16.90
2022-10-19T12:34:47.082Z,17.10
2022-10-19T12:37:32.480Z,17.00
2022-10-19T12:40:17.237Z,17.10
2022-10-19T12:42:57.078Z,16.90
2022-10-19T12:45:39.587Z,17.00
2022-10-19T12:53:36.381Z,16.90
2022-10-19T12:58:56.591Z,16.90
2022-10-19T13:01:44.437Z,16.90
2022-10-19T13:04:22.937Z,16.80
2022-10-19T13:07:04.478Z,16.80
2022-10-19T13:09:39.767Z,16.90
2022-10-19T13:14:58.348Z,16.90
2022-10-19T13:17:44.185Z,16.70
2022-10-19T13:23:13.440Z,17.00
2022-10-19T13:25:41.712Z,17.40
2022-10-19T13:28:16.206Z,17.50
2022-10-19T13:36:06.258Z,17.60
2022-10-19T13:38:42.098Z,17.20
2022-10-19T13:41:25.906Z,16.90
2022-10-19T13:47:31.446Z,16.60
2022-10-19T13:50:29.981Z,16.50
2022-10-19T13:53:22.018Z,16.60
2022-10-19T13:56:01.473Z,16.50
2022-10-19T13:59:00.119Z,16.50
2022-10-19T14:01:43.338Z,16.50
2022-10-19T14:04:19.647Z,16.60
2022-10-19T14:07:00.473Z,16.60
2022-10-19T14:09:56.481Z,16.60
2022-10-19T14:12:26.928Z,16.80
2022-10-19T14:14:54.488Z,16.90
2022-10-19T14:17:25.401Z,17.00
2022-10-19T14:19:56.976Z,17.00
2022-10-19T14:22:33.301Z,17.00
2022-10-19T14:25:04.635Z,17.00
2022-10-19T14:27:33.688Z,17.00
2022-10-19T14:30:01.667Z,17.10
2022-10-19T14:32:30.095Z,17.10
2022-10-19T14:37:37.440Z,17.10
2022-10-19T14:40:26.522Z,17.10
2022-10-19T14:42:58.041Z,17.10
2022-10-19T14:45:28.709Z,17.00
2022-10-19T14:48:17.848Z,17.00
2022-10-19T14:50:53.638Z,17.00
2022-10-19T14:53:36.191Z,16.90
2022-10-19T14:56:10.864Z,16.90
2022-10-19T14:58:44.885Z,16.80
2022-10-19T15:01:12.759Z,16.80
2022-10-19T15:03:43.738Z,16.80
2022-10-19T15:06:29.884Z,16.70
2022-10-19T15:09:00.818Z,16.60
2022-10-19T15:11:36.404Z,16.60
2022-10-19T15:14:09.039Z,16.60
2022-10-19T15:16:44.817Z,16.60
2022-10-19T15:19:19.307Z,16.50
2022-10-19T15:21:48.084Z,16.60
2022-10-19T15:24:24.223Z,16.50
2022-10-19T15:27:06.672Z,16.50
2022-10-19T15:29:36.378Z,16.40
2022-10-19T15:32:25.280Z,16.40
2022-10-19T15:34:52.447Z,16.30
2022-10-19T15:37:23.896Z,16.20
2022-10-19T15:39:52.687Z,16.20
2022-10-19T15:42:35.992Z,16.20
2022-10-19T15:45:24.296Z,16.10
2022-10-19T15:48:16.064Z,16.00
2022-10-19T15:50:45.192Z,16.00
2022-10-19T15:53:12.419Z,15.90
2022-10-19T15:55:39.538Z,15.90
2022-10-19T15:58:06.679Z,15.80
